Seaside, Oregon
Current Conditions -  °F | °C
As of 2:55 AM on Saturday 25 Oct 2014 (Local Time) from KAST Reporting Station
Overcast Overcast  
Wind Chill: 56°   Ceiling: 5000
Heat Index: 56°   Visibility: 10mi
Dew Point: 49°   Wind: 6mph
Humidity: 77%   Direction: 60°ENE
Pressure: 29.53"   Gusts: NA
Location:  45.99°N, 123.91°W
Report Text: KAST 250955Z AUTO 06005KT 10SM OVC050 13/09 A2953 RMK AO2 SLP999 T01330094
Loading
Personal Weather Stations






























Interactive Weather Map New forecast layout! Learn more

10-Day Weather Forecast

Advertisements
Track Severe Weather on mobile